Time;durP1;ratioP1;P1;durP2;ratioP2;P2;SDS_P1;SDS_P2;PMS_P1;PMS_P2;Temp;Humidity;BMP_temperature;BMP_pressure;BME280_temperature;BME280_humidity;BME280_pressure;Samples;Min_cycle;Max_cycle;Signal;HPM_P1;HPM_P2
2021/08/04 00:01:57;;;;;;;1.40;1.30;;;;;;;17.38;100.00;100628.53;4933531;28;20587;-76
2021/08/04 00:04:22;;;;;;;2.05;1.40;;;;;;;17.38;100.00;100625.78;4939401;28;20187;-76
2021/08/04 00:06:48;;;;;;;2.13;1.42;;;;;;;17.42;100.00;100624.03;4952605;28;20680;-76
2021/08/04 00:09:16;;;;;;;1.50;1.40;;;;;;;17.37;100.00;100621.41;4952747;29;20229;-74
2021/08/04 00:11:41;;;;;;;1.20;1.10;;;;;;;17.33;100.00;100621.56;4936869;29;20708;-75
2021/08/04 00:14:07;;;;;;;1.40;1.30;;;;;;;17.38;100.00;100625.78;4937194;29;20687;-76
2021/08/04 00:16:32;;;;;;;3.15;1.60;;;;;;;17.43;100.00;100617.38;4952723;28;20226;-75
2021/08/04 00:19:00;;;;;;;1.92;1.33;;;;;;;17.53;100.00;100611.63;4938817;29;20214;-76
2021/08/04 00:21:28;;;;;;;1.40;1.20;;;;;;;17.69;100.00;100610.06;4972186;28;20231;-76
2021/08/04 00:23:58;;;;;;;1.65;1.17;;;;;;;17.69;100.00;100615.56;4971193;28;20238;-76
2021/08/04 00:26:24;;;;;;;1.60;1.42;;;;;;;17.61;100.00;100619.06;4953480;28;20235;-75
2021/08/04 00:28:49;;;;;;;1.75;1.40;;;;;;;17.69;100.00;100615.56;4954645;29;20210;-75
2021/08/04 00:31:17;;;;;;;2.42;1.20;;;;;;;17.73;100.00;100613.78;4963955;28;20690;-75
2021/08/04 00:33:43;;;;;;;1.50;1.40;;;;;;;17.67;100.00;100620.53;4935894;29;20207;-76
2021/08/04 00:36:09;;;;;;;1.63;1.10;;;;;;;17.75;100.00;100617.03;4959458;28;20229;-75
2021/08/04 00:38:34;;;;;;;1.50;1.20;;;;;;;17.76;100.00;100621.38;4922934;29;20800;-75
2021/08/04 00:41:00;;;;;;;1.40;1.23;;;;;;;17.82;100.00;100626.41;4947783;29;20214;-75
2021/08/04 00:43:28;;;;;;;1.80;1.08;;;;;;;17.85;100.00;100630.44;4938743;29;20684;-76
2021/08/04 00:45:54;;;;;;;1.30;1.20;;;;;;;17.74;100.00;100627.19;4954642;28;20290;-75
2021/08/04 00:48:23;;;;;;;1.58;1.10;;;;;;;17.45;100.00;100626.16;4954597;29;20214;-75
2021/08/04 00:50:51;;;;;;;1.92;1.30;;;;;;;17.54;100.00;100632.44;4944668;29;20223;-75
2021/08/04 00:53:28;;;;;;;1.45;1.17;;;;;;;17.63;100.00;100629.75;4939258;29;20198;-75
2021/08/04 00:55:57;;;;;;;1.65;1.20;;;;;;;17.70;100.00;100638.34;4940084;28;20804;-75
2021/08/04 00:58:38;;;;;;;1.45;1.20;;;;;;;17.43;100.00;100635.81;4922770;29;20205;-74
2021/08/04 01:01:12;;;;;;;2.13;1.40;;;;;;;17.60;100.00;100633.13;4915766;28;20218;-74
2021/08/04 01:03:43;;;;;;;2.95;1.25;;;;;;;17.57;100.00;100628.28;4938860;29;20199;-75
2021/08/04 01:06:23;;;;;;;2.05;1.27;;;;;;;17.48;100.00;100630.19;4938250;28;20230;-75
2021/08/04 01:08:53;;;;;;;1.50;1.15;;;;;;;17.58;100.00;100629.88;4938865;29;20326;-75
2021/08/04 01:11:24;;;;;;;1.33;1.23;;;;;;;17.57;100.00;100631.81;4922726;29;20222;-76
2021/08/04 01:13:54;;;;;;;1.50;1.02;;;;;;;17.60;100.00;100633.13;4954625;28;20266;-76
2021/08/04 01:16:30;;;;;;;2.05;1.10;;;;;;;17.59;100.00;100634.25;4960642;28;20227;-75
2021/08/04 01:19:20;;;;;;;1.45;1.30;;;;;;;17.50;100.00;100634.22;4922195;29;20222;-75
2021/08/04 01:22:10;;;;;;;1.20;1.10;;;;;;;17.57;100.00;100628.28;4954964;28;20226;-75
2021/08/04 01:24:45;;;;;;;1.35;1.13;;;;;;;17.61;100.00;100638.31;4954465;29;20210;-75
2021/08/04 01:27:12;;;;;;;5.57;1.30;;;;;;;17.55;100.00;100631.34;4923223;29;20221;-76
2021/08/04 01:29:38;;;;;;;1.35;1.10;;;;;;;17.63;100.00;100627.78;4953113;28;20211;-75
2021/08/04 01:32:06;;;;;;;3.17;1.35;;;;;;;17.44;100.00;100634.69;4969047;28;20246;-76
2021/08/04 01:34:36;;;;;;;1.98;1.20;;;;;;;17.43;100.00;100630.31;4922688;29;20191;-77
2021/08/04 01:37:03;;;;;;;1.95;1.27;;;;;;;17.49;100.00;100618.88;4938182;28;20215;-75
2021/08/04 01:39:31;;;;;;;1.42;1.27;;;;;;;17.47;100.00;100618.41;4953378;29;20203;-75
2021/08/04 01:41:58;;;;;;;1.95;1.20;;;;;;;17.37;100.00;100621.41;4937510;29;20219;-75
2021/08/04 01:44:24;;;;;;;2.35;1.30;;;;;;;17.31;100.00;100621.88;4954747;28;20206;-75
2021/08/04 01:46:52;;;;;;;3.08;1.40;;;;;;;17.31;100.00;100629.28;4937377;28;20701;-76
2021/08/04 01:49:20;;;;;;;2.75;1.30;;;;;;;17.35;100.00;100623.66;4969378;28;20203;-76
2021/08/04 01:51:46;;;;;;;1.30;1.20;;;;;;;17.33;100.00;100621.56;4937074;29;20607;-77
2021/08/04 01:54:12;;;;;;;1.30;1.20;;;;;;;17.37;100.00;100626.91;4953880;28;20232;-78
2021/08/04 01:56:40;;;;;;;2.78;1.67;;;;;;;17.38;100.00;100625.00;4926320;28;20243;-77
2021/08/04 01:59:06;;;;;;;1.40;1.30;;;;;;;17.21;100.00;100624.09;4937119;29;20202;-76
2021/08/04 02:01:31;;;;;;;1.40;1.25;;;;;;;17.09;100.00;100621.09;4939996;29;20359;-76
2021/08/04 02:03:57;;;;;;;1.60;1.30;;;;;;;16.78;100.00;100617.53;4953392;29;20711;-77
2021/08/04 02:06:30;;;;;;;1.50;1.40;;;;;;;16.81;100.00;100614.19;4954143;28;20246;-76
2021/08/04 02:09:04;;;;;;;1.58;1.10;;;;;;;16.82;100.00;100614.97;4952664;29;20250;-76
2021/08/04 02:11:40;;;;;;;1.98;1.30;;;;;;;16.92;100.00;100621.00;4968303;28;20219;-75
2021/08/04 02:14:18;;;;;;;2.03;1.35;;;;;;;17.02;100.00;100620.75;4922667;29;20182;-75
2021/08/04 02:17:13;;;;;;;1.48;1.30;;;;;;;16.95;100.00;100614.88;4924241;28;20597;-75
2021/08/04 02:19:47;;;;;;;2.58;1.30;;;;;;;16.90;100.00;100611.47;4936904;29;20294;-75
2021/08/04 02:22:25;;;;;;;2.63;1.40;;;;;;;16.93;100.00;100611.66;4954311;28;20207;-75
2021/08/04 02:24:56;;;;;;;2.15;1.20;;;;;;;16.91;100.00;100615.84;4921990;29;20215;-75
2021/08/04 02:27:21;;;;;;;1.42;1.30;;;;;;;16.87;100.00;100612.91;4936799;29;20222;-75
2021/08/04 02:29:52;;;;;;;1.60;1.15;;;;;;;16.71;100.00;100608.94;4952447;29;20186;-74
2021/08/04 02:32:22;;;;;;;2.65;1.20;;;;;;;16.77;100.00;100607.66;4937222;29;20226;-74
2021/08/04 02:34:48;;;;;;;1.73;1.38;;;;;;;16.79;100.00;100605.41;4937786;28;20190;-75
2021/08/04 02:37:19;;;;;;;2.83;1.38;;;;;;;16.70;100.00;100612.81;4936469;29;20587;-76
2021/08/04 02:39:47;;;;;;;1.30;1.20;;;;;;;16.74;100.00;100608.31;4952428;29;20191;-74
2021/08/04 02:42:13;;;;;;;2.92;1.40;;;;;;;16.79;100.00;100608.16;4936361;29;20211;-74
2021/08/04 02:44:38;;;;;;;1.52;1.42;;;;;;;16.98;100.00;100611.53;4920960;29;20203;-75
2021/08/04 02:47:06;;;;;;;1.77;1.17;;;;;;;17.07;100.00;100617.88;4921060;28;20747;-75
2021/08/04 02:49:32;;;;;;;2.60;1.30;;;;;;;17.09;100.00;100615.63;4952440;28;20808;-74
2021/08/04 02:51:57;;;;;;;3.45;1.27;;;;;;;17.19;100.00;100610.66;4936185;29;20234;-76
2021/08/04 02:54:25;;;;;;;1.63;1.30;;;;;;;17.20;100.00;100611.50;4921920;29;20187;-76
2021/08/04 02:56:50;;;;;;;2.45;1.25;;;;;;;17.15;100.00;100617.09;4936314;29;20234;-76
2021/08/04 02:59:21;;;;;;;5.13;1.20;;;;;;;17.27;100.00;100618.16;4952544;29;20207;-75
2021/08/04 03:01:46;;;;;;;1.60;1.10;;;;;;;17.29;100.00;100610.41;4936588;29;20238;-77
2021/08/04 03:04:14;;;;;;;1.48;1.20;;;;;;;17.14;100.00;100613.53;4934034;29;20184;-78
2021/08/04 03:06:42;;;;;;;1.30;1.15;;;;;;;17.10;100.00;100619.97;4932880;28;20247;-75
2021/08/04 03:09:11;;;;;;;1.75;1.13;;;;;;;17.11;100.00;100605.94;4966329;28;20595;-76
2021/08/04 03:11:39;;;;;;;1.42;1.33;;;;;;;16.99;100.00;100616.66;4968353;28;20223;-75
2021/08/04 03:14:09;;;;;;;1.80;1.30;;;;;;;16.97;100.00;100612.63;4968553;28;20266;-77
2021/08/04 03:16:34;;;;;;;2.72;1.40;;;;;;;17.05;100.00;100615.44;4936106;29;20842;-75
2021/08/04 03:19:05;;;;;;;2.60;1.20;;;;;;;17.00;100.00;100618.31;4949010;28;20207;-75
2021/08/04 03:21:30;;;;;;;1.50;1.40;;;;;;;16.90;100.00;100616.94;4936140;29;20230;-73
2021/08/04 03:23:56;;;;;;;1.40;1.30;;;;;;;16.87;100.00;100618.41;4968164;28;20187;-74
2021/08/04 03:26:22;;;;;;;1.30;1.20;;;;;;;16.73;100.00;100614.09;4951642;28;20237;-75
2021/08/04 03:28:50;;;;;;;2.03;1.50;;;;;;;16.88;100.00;100620.00;4968035;28;20206;-75
2021/08/04 03:31:18;;;;;;;1.35;1.25;;;;;;;16.90;100.00;100617.75;4951556;28;20917;-75
2021/08/04 03:33:46;;;;;;;2.05;1.27;;;;;;;16.91;100.00;100613.91;4933340;29;20668;-75
2021/08/04 03:36:12;;;;;;;1.40;1.30;;;;;;;16.90;100.00;100611.47;4935971;29;20242;-75
2021/08/04 03:38:38;;;;;;;1.60;1.38;;;;;;;16.75;100.00;100618.16;4920226;29;20206;-74
2021/08/04 03:41:06;;;;;;;1.45;1.35;;;;;;;16.67;100.00;100612.63;4951489;28;20224;-74
2021/08/04 03:43:33;;;;;;;1.50;1.40;;;;;;;16.64;100.00;100616.78;4935092;29;20235;-74
2021/08/04 03:46:00;;;;;;;1.70;1.20;;;;;;;16.60;100.00;100613.06;4935416;29;20223;-74
2021/08/04 03:48:26;;;;;;;2.63;1.45;;;;;;;16.70;100.00;100618.31;4935371;29;20711;-76
2021/08/04 03:50:52;;;;;;;2.83;1.30;;;;;;;16.48;100.00;100617.47;4951517;29;20818;-74
2021/08/04 03:53:25;;;;;;;3.45;1.60;;;;;;;16.44;100.00;100618.41;4966113;28;20187;-73
2021/08/04 03:55:52;;;;;;;2.83;1.60;;;;;;;16.45;100.00;100617.31;4956589;28;20609;-74
2021/08/04 03:58:18;;;;;;;1.70;1.25;;;;;;;16.55;100.00;100614.31;4939611;29;20930;-75
2021/08/04 04:00:51;;;;;;;2.08;1.30;;;;;;;16.59;100.00;100624.31;4954811;28;20218;-76
2021/08/04 04:03:16;;;;;;;2.78;1.30;;;;;;;16.59;100.00;100625.16;4956401;28;20187;-75
2021/08/04 04:05:43;;;;;;;1.50;1.40;;;;;;;16.50;100.00;100619.91;4954963;29;20230;-74
2021/08/04 04:08:11;;;;;;;2.65;1.50;;;;;;;16.35;100.00;100625.75;4923797;29;20249;-75
2021/08/04 04:10:36;;;;;;;2.00;1.40;;;;;;;16.36;100.00;100619.97;4970496;28;20233;-75
2021/08/04 04:13:02;;;;;;;2.95;1.52;;;;;;;16.36;100.00;100627.41;4923026;29;20191;-75
2021/08/04 04:15:28;;;;;;;1.67;1.40;;;;;;;16.38;100.00;100627.91;4940045;28;20235;-75
2021/08/04 04:17:53;;;;;;;1.83;1.38;;;;;;;16.31;100.00;100624.75;4939113;29;20274;-75
2021/08/04 04:20:21;;;;;;;3.47;1.48;;;;;;;16.45;100.00;100625.53;4937721;28;20191;-75
2021/08/04 04:22:47;;;;;;;2.40;1.30;;;;;;;16.56;100.00;100631.25;4907194;29;20198;-75
2021/08/04 04:25:13;;;;;;;1.83;1.48;;;;;;;16.66;100.00;100628.25;4953362;28;20219;-75
2021/08/04 04:27:44;;;;;;;3.08;1.50;;;;;;;16.42;100.00;100637.13;4935326;29;20219;-75
2021/08/04 04:30:13;;;;;;;1.40;1.30;;;;;;;16.31;100.00;100638.47;4949816;28;20202;-76
2021/08/04 04:32:38;;;;;;;1.40;1.30;;;;;;;16.14;100.00;100643.78;4954504;29;20237;-74
2021/08/04 04:35:04;;;;;;;3.28;1.70;;;;;;;16.20;100.00;100632.41;4954716;29;20179;-75
2021/08/04 04:37:32;;;;;;;2.25;1.63;;;;;;;16.18;100.00;100636.59;4954653;28;20588;-75
2021/08/04 04:39:58;;;;;;;1.40;1.30;;;;;;;16.24;100.00;100636.19;4935515;29;20661;-76
2021/08/04 04:42:23;;;;;;;1.65;1.55;;;;;;;16.22;100.00;100637.59;4951319;29;20227;-75
2021/08/04 04:44:52;;;;;;;2.50;1.73;;;;;;;16.40;100.00;100639.34;4927957;29;20643;-74
2021/08/04 04:47:18;;;;;;;2.78;1.40;;;;;;;16.57;100.00;100643.88;4936000;29;20239;-75
2021/08/04 04:49:43;;;;;;;2.40;1.63;;;;;;;16.68;100.00;100647.16;4960994;28;20214;-75
2021/08/04 04:52:11;;;;;;;3.00;1.40;;;;;;;16.74;100.00;100652.22;4954703;28;20230;-75
2021/08/04 04:54:40;;;;;;;1.45;1.35;;;;;;;16.88;100.00;100652.13;4939510;29;20214;-75
2021/08/04 04:57:05;;;;;;;1.95;1.58;;;;;;;16.85;100.00;100650.84;4953767;28;20235;-75
2021/08/04 04:59:33;;;;;;;1.67;1.55;;;;;;;16.98;100.00;100658.97;4953152;29;20222;-77
2021/08/04 05:02:01;;;;;;;4.63;1.70;;;;;;;16.95;100.00;100661.53;4921122;29;20234;-76
2021/08/04 05:04:26;;;;;;;1.65;1.55;;;;;;;17.03;100.00;100655.28;4969017;28;20187;-76
2021/08/04 05:06:52;;;;;;;1.77;1.67;;;;;;;17.05;100.00;100655.78;4952280;28;20227;-76
2021/08/04 05:09:20;;;;;;;2.20;1.60;;;;;;;17.14;100.00;100657.47;4937874;29;20827;-76
2021/08/04 05:11:48;;;;;;;1.50;1.40;;;;;;;17.18;100.00;100657.66;4953995;28;20226;-76
2021/08/04 05:14:18;;;;;;;2.90;1.60;;;;;;;17.12;100.00;100664.38;4952497;29;20214;-77
2021/08/04 05:16:46;;;;;;;2.03;1.40;;;;;;;17.06;100.00;100660.16;4938558;28;20257;-77
2021/08/04 05:19:11;;;;;;;2.75;1.63;;;;;;;17.14;100.00;100656.63;4954251;29;20199;-77
2021/08/04 05:21:37;;;;;;;1.90;1.70;;;;;;;17.14;100.00;100662.13;4938474;29;20238;-77
2021/08/04 05:24:03;;;;;;;1.65;1.50;;;;;;;17.17;100.00;100672.53;4970814;28;20187;-77
2021/08/04 05:26:32;;;;;;;2.15;1.52;;;;;;;16.98;100.00;100669.16;4953639;29;20237;-75
2021/08/04 05:28:59;;;;;;;1.65;1.55;;;;;;;17.28;100.00;100668.38;4958348;28;20206;-77
2021/08/04 05:31:24;;;;;;;1.90;1.67;;;;;;;17.34;100.00;100681.66;4963776;28;20231;-77
2021/08/04 05:33:52;;;;;;;1.70;1.38;;;;;;;17.27;100.00;100683.22;4956536;29;20182;-77
2021/08/04 05:36:18;;;;;;;2.72;1.40;;;;;;;17.36;100.00;100677.47;4954669;28;20245;-77
2021/08/04 05:38:43;;;;;;;1.73;1.45;;;;;;;17.27;100.00;100684.06;4936515;28;20207;-77
2021/08/04 05:41:11;;;;;;;2.67;1.65;;;;;;;17.24;100.00;100689.38;4952814;28;20635;-78
2021/08/04 05:43:37;;;;;;;1.75;1.58;;;;;;;17.39;100.00;100687.81;4939273;28;20191;-77
2021/08/04 05:46:02;;;;;;;2.95;1.50;;;;;;;16.98;100.00;100691.13;4953045;28;20242;-75
2021/08/04 05:48:33;;;;;;;2.60;1.58;;;;;;;16.95;100.00;100686.25;4946240;28;20215;-74
2021/08/04 05:50:58;;;;;;;2.35;1.40;;;;;;;16.94;100.00;100681.88;4896670;29;20234;-76
2021/08/04 05:53:26;;;;;;;1.95;1.60;;;;;;;17.00;100.00;100686.13;4939683;28;20188;-76
2021/08/04 05:55:52;;;;;;;2.13;1.30;;;;;;;17.20;100.00;100689.19;4927571;29;20310;-76
2021/08/04 05:58:19;;;;;;;1.60;1.50;;;;;;;17.11;100.00;100690.22;4950078;29;20729;-76
2021/08/04 06:00:50;;;;;;;2.75;1.63;;;;;;;17.12;100.00;100692.66;4943493;28;20222;-75
2021/08/04 06:03:15;;;;;;;3.75;1.90;;;;;;;17.05;100.00;100692.28;4938131;29;20241;-76
2021/08/04 06:05:41;;;;;;;1.92;1.40;;;;;;;16.93;100.00;100691.22;4921862;28;20227;-76
2021/08/04 06:08:10;;;;;;;2.58;1.65;;;;;;;16.95;100.00;100687.03;4949499;28;20285;-75
2021/08/04 06:10:40;;;;;;;1.67;1.58;;;;;;;16.87;100.00;100692.50;4937679;28;20218;-75
2021/08/04 06:13:08;;;;;;;2.45;1.63;;;;;;;16.81;100.00;100693.75;4953566;29;20190;-75
2021/08/04 06:15:38;;;;;;;1.60;1.50;;;;;;;16.88;100.00;100679.56;4953014;28;20230;-76
2021/08/04 06:18:08;;;;;;;1.70;1.60;;;;;;;17.16;100.00;100682.72;4937469;29;20218;-75
2021/08/04 06:20:36;;;;;;;1.70;1.52;;;;;;;17.03;100.00;100699.19;4934245;29;20219;-76
2021/08/04 06:23:02;;;;;;;2.03;1.70;;;;;;;17.28;100.00;100695.84;4902786;29;20613;-77
2021/08/04 06:25:27;;;;;;;2.90;1.23;;;;;;;17.19;100.00;100697.72;4952293;28;20234;-75
2021/08/04 06:27:54;;;;;;;2.75;1.40;;;;;;;17.23;100.00;100693.22;4952881;29;20215;-75
2021/08/04 06:30:20;;;;;;;2.63;1.60;;;;;;;17.14;100.00;100695.91;4936656;28;20203;-77
2021/08/04 06:32:48;;;;;;;1.50;1.40;;;;;;;17.35;100.00;100702.50;4953544;29;20681;-75
2021/08/04 06:35:14;;;;;;;2.42;1.40;;;;;;;17.33;100.00;100703.97;4953437;28;20260;-75
2021/08/04 06:37:39;;;;;;;3.80;1.55;;;;;;;17.37;100.00;100705.75;4954410;29;20187;-75
2021/08/04 06:40:05;;;;;;;2.13;1.50;;;;;;;17.43;100.00;100699.78;4953218;28;20199;-75
2021/08/04 06:42:36;;;;;;;5.63;1.92;;;;;;;17.42;100.00;100700.94;4954764;29;20178;-74
2021/08/04 06:45:04;;;;;;;3.28;1.60;;;;;;;17.54;100.00;100692.88;4954102;29;20203;-76
2021/08/04 06:47:32;;;;;;;1.77;1.50;;;;;;;17.66;100.00;100693.13;4951117;29;20223;-76
2021/08/04 06:49:58;;;;;;;2.08;1.40;;;;;;;17.66;100.00;100704.09;4954419;29;20661;-75
2021/08/04 06:52:23;;;;;;;2.55;1.40;;;;;;;18.06;100.00;100689.19;4964342;28;20211;-76
2021/08/04 06:54:49;;;;;;;1.30;1.20;;;;;;;18.11;100.00;100695.38;4952663;29;20550;-76
2021/08/04 06:57:15;;;;;;;1.75;1.42;;;;;;;18.59;100.00;100691.41;4953425;28;20215;-76
2021/08/04 06:59:42;;;;;;;2.88;1.30;;;;;;;18.94;100.00;100691.06;4952319;29;20207;-75
2021/08/04 07:02:08;;;;;;;1.40;1.30;;;;;;;18.78;100.00;100691.88;4935250;29;20222;-73
2021/08/04 07:04:34;;;;;;;1.52;1.30;;;;;;;19.12;100.00;100696.25;4920542;29;20731;-77
2021/08/04 07:07:00;;;;;;;2.03;1.35;;;;;;;19.69;98.63;100701.88;4952140;28;20211;-78
2021/08/04 07:09:26;;;;;;;1.77;1.40;;;;;;;19.89;94.88;100697.59;4936311;29;20302;-76
2021/08/04 07:11:52;;;;;;;2.13;1.50;;;;;;;19.84;94.30;100697.81;4947564;28;20302;-73
2021/08/04 07:14:17;;;;;;;3.30;1.55;;;;;;;19.85;92.39;100700.22;4936964;29;20728;-75
2021/08/04 07:16:44;;;;;;;2.38;1.55;;;;;;;19.51;92.81;100705.03;4936140;29;20226;-72
2021/08/04 07:19:14;;;;;;;2.08;1.60;;;;;;;19.61;94.86;100693.63;4952270;29;20210;-76
2021/08/04 07:21:42;;;;;;;3.28;1.50;;;;;;;19.77;92.48;100698.25;4936416;29;20211;-76
2021/08/04 07:24:08;;;;;;;1.95;1.70;;;;;;;19.58;93.83;100705.34;4920731;29;20175;-76
2021/08/04 07:26:37;;;;;;;3.08;1.40;;;;;;;19.44;93.73;100706.69;4935918;29;20756;-73
2021/08/04 07:29:05;;;;;;;1.50;1.40;;;;;;;19.39;95.16;100706.84;4966918;28;20273;-75
2021/08/04 07:31:32;;;;;;;2.20;1.40;;;;;;;19.83;94.73;100716.25;4951786;29;20255;-77
2021/08/04 07:33:58;;;;;;;2.00;1.60;;;;;;;19.78;93.11;100704.63;4952438;29;20183;-74
2021/08/04 07:36:28;;;;;;;1.95;1.58;;;;;;;19.88;91.27;100718.06;4936339;29;20218;-76
2021/08/04 07:38:56;;;;;;;2.63;1.50;;;;;;;19.89;91.74;100717.72;4967454;28;20214;-76
2021/08/04 07:41:23;;;;;;;1.92;1.55;;;;;;;19.84;92.34;100698.59;4936266;29;20645;-75
2021/08/04 07:43:52;;;;;;;2.25;1.33;;;;;;;19.53;95.15;100707.47;4951989;29;20183;-73
2021/08/04 07:46:22;;;;;;;1.33;1.23;;;;;;;19.57;96.08;100702.91;4951952;29;20241;-76
2021/08/04 07:48:50;;;;;;;1.67;1.48;;;;;;;19.44;96.60;100707.47;4936390;29;20222;-76
2021/08/04 07:51:18;;;;;;;2.10;1.50;;;;;;;19.35;94.87;100703.94;4968118;28;20215;-75
2021/08/04 07:53:43;;;;;;;1.50;1.38;;;;;;;19.56;95.09;100713.13;4919818;29;20184;-76
2021/08/04 07:56:09;;;;;;;1.88;1.70;;;;;;;19.82;93.82;100700.88;4917215;29;20242;-77
2021/08/04 07:58:35;;;;;;;1.63;1.45;;;;;;;19.76;94.36;100706.88;4932147;29;20203;-77
2021/08/04 08:01:00;;;;;;;1.48;1.38;;;;;;;19.58;97.04;100710.84;4953009;28;20701;-74
2021/08/04 08:03:28;;;;;;;2.53;1.60;;;;;;;19.72;97.05;100701.22;4936293;29;20618;-76
2021/08/04 08:05:59;;;;;;;1.63;1.50;;;;;;;19.97;94.84;100708.59;4921790;29;20234;-76
2021/08/04 08:08:24;;;;;;;2.45;1.67;;;;;;;19.85;95.13;100705.75;4936582;29;20207;-76
2021/08/04 08:10:56;;;;;;;1.80;1.58;;;;;;;20.44;91.58;100694.34;4953397;28;20607;-79
2021/08/04 08:13:21;;;;;;;2.00;1.48;;;;;;;20.46;92.98;100698.38;4953346;28;20208;-75
2021/08/04 08:15:50;;;;;;;3.17;1.52;;;;;;;20.68;90.35;100700.84;4921478;29;20246;-76
2021/08/04 08:18:18;;;;;;;1.73;1.50;;;;;;;20.77;86.72;100696.06;4937905;29;20195;-77
2021/08/04 08:20:44;;;;;;;2.80;1.85;;;;;;;20.43;87.91;100705.72;4952471;29;20221;-75
2021/08/04 08:23:12;;;;;;;2.03;1.83;;;;;;;20.37;89.54;100705.09;4953484;29;20183;-75
2021/08/04 08:25:40;;;;;;;2.17;1.60;;;;;;;20.83;87.16;100699.41;4938541;28;20603;-76
2021/08/04 08:28:08;;;;;;;6.00;2.20;;;;;;;20.83;85.70;100700.22;4958953;28;20832;-74
2021/08/04 08:30:35;;;;;;;21.60;3.40;;;;;;;20.74;88.09;100695.91;4953865;28;20231;-75
2021/08/04 08:33:04;;;;;;;3.10;1.85;;;;;;;21.14;86.70;100706.09;4940603;28;20183;-77
2021/08/04 08:35:30;;;;;;;2.10;1.55;;;;;;;21.27;85.33;100705.78;4953366;28;20620;-75
2021/08/04 08:37:59;;;;;;;1.90;1.70;;;;;;;21.42;84.10;100697.66;4953409;29;20217;-77
2021/08/04 08:40:26;;;;;;;2.35;1.70;;;;;;;21.32;84.05;100698.09;4954857;28;20222;-77
2021/08/04 08:42:57;;;;;;;2.40;1.85;;;;;;;21.85;78.50;100700.72;4941000;29;20194;-77
2021/08/04 08:45:22;;;;;;;1.75;1.65;;;;;;;21.62;81.79;100696.78;4955854;28;20211;-73
2021/08/04 08:47:51;;;;;;;3.95;1.67;;;;;;;21.84;80.26;100699.13;4973430;28;20773;-78
2021/08/04 08:50:25;;;;;;;1.92;1.48;;;;;;;22.34;80.78;100690.09;4958217;28;20195;-76
2021/08/04 08:52:50;;;;;;;2.25;1.55;;;;;;;21.95;80.92;100689.22;4941176;29;20187;-73
2021/08/04 08:55:16;;;;;;;1.70;1.60;;;;;;;21.64;80.70;100694.47;4971484;28;20649;-73
2021/08/04 08:57:46;;;;;;;2.97;1.60;;;;;;;21.52;83.25;100688.94;4956266;29;20231;-77
2021/08/04 09:00:15;;;;;;;2.42;1.55;;;;;;;22.00;80.66;100690.59;4944698;28;20191;-76
2021/08/04 09:02:40;;;;;;;3.20;1.50;;;;;;;21.96;84.87;100679.75;4956973;28;20175;-74
2021/08/04 09:05:12;;;;;;;1.90;1.70;;;;;;;22.20;81.52;100681.38;4956445;28;20233;-75
2021/08/04 09:07:44;;;;;;;1.70;1.60;;;;;;;22.31;78.69;100676.97;4956669;28;20210;-77
2021/08/04 09:10:30;;;;;;;3.42;1.50;;;;;;;22.48;75.34;100676.72;4940643;28;20234;-76
2021/08/04 09:13:02;;;;;;;2.85;1.60;;;;;;;23.23;74.24;100678.16;4972189;28;20243;-76
2021/08/04 09:15:38;;;;;;;2.28;1.80;;;;;;;23.54;68.28;100675.44;4956455;28;20230;-76
2021/08/04 09:18:05;;;;;;;2.50;1.70;;;;;;;24.09;65.52;100690.75;4957191;29;20194;-77
2021/08/04 09:20:54;;;;;;;2.05;1.75;;;;;;;23.88;58.06;100694.97;4970654;28;20226;-74
2021/08/04 09:23:27;;;;;;;1.85;1.42;;;;;;;24.40;57.55;100685.16;4960617;28;20218;-76
2021/08/04 09:26:19;;;;;;;3.00;1.70;;;;;;;24.24;57.21;100689.09;4922861;29;20266;-73
2021/08/04 09:29:09;;;;;;;2.58;1.65;;;;;;;24.53;59.78;100683.88;4926018;28;20207;-75
2021/08/04 09:31:44;;;;;;;3.10;1.60;;;;;;;24.85;55.23;100678.63;4953926;29;20349;-73
2021/08/04 09:34:24;;;;;;;2.85;1.50;;;;;;;24.72;57.85;100681.88;4959240;28;20676;-75
2021/08/04 09:37:16;;;;;;;2.22;1.67;;;;;;;24.28;56.05;100687.25;4954384;28;20226;-75
2021/08/04 09:39:45;;;;;;;1.75;1.60;;;;;;;24.21;56.18;100687.03;4953964;29;20199;-76
2021/08/04 09:42:14;;;;;;;3.47;1.63;;;;;;;24.45;59.91;100680.13;4922782;29;20219;-76
2021/08/04 09:44:59;;;;;;;3.53;1.67;;;;;;;24.45;61.69;100682.06;4955013;28;20241;-75
2021/08/04 09:47:24;;;;;;;4.07;1.90;;;;;;;24.34;59.05;100694.94;4953874;28;20230;-79
2021/08/04 09:50:06;;;;;;;4.65;1.50;;;;;;;24.48;59.96;100687.72;4953907;29;20229;-75
2021/08/04 09:52:32;;;;;;;2.33;1.65;;;;;;;24.50;62.11;100690.13;4954902;28;20249;-77
2021/08/04 09:55:22;;;;;;;1.80;1.65;;;;;;;24.50;61.90;100685.38;4934444;28;20179;-77
2021/08/04 09:57:51;;;;;;;2.22;1.67;;;;;;;24.83;60.31;100685.69;4966027;29;20309;-76
2021/08/04 10:00:17;;;;;;;2.25;1.63;;;;;;;24.16;62.13;100684.56;4965975;28;20194;-77
2021/08/04 10:02:46;;;;;;;2.33;1.80;;;;;;;24.70;60.33;100675.91;4916950;29;20183;-77
2021/08/04 10:05:24;;;;;;;2.85;1.70;;;;;;;24.52;56.08;100674.72;4947094;28;20207;-76
2021/08/04 10:08:05;;;;;;;3.47;2.03;;;;;;;25.14;57.37;100673.25;4966633;29;20210;-78
2021/08/04 10:10:44;;;;;;;2.70;1.88;;;;;;;24.37;52.92;100681.13;4974013;28;20223;-77
2021/08/04 10:13:14;;;;;;;4.72;1.80;;;;;;;25.09;55.05;100672.78;4956837;28;20191;-77
2021/08/04 10:15:46;;;;;;;5.10;1.50;;;;;;;24.72;56.21;100681.09;4955995;28;20222;-75
2021/08/04 10:18:20;;;;;;;3.33;1.73;;;;;;;24.24;58.08;100686.34;4923316;29;20760;-76
2021/08/04 10:20:50;;;;;;;1.90;1.73;;;;;;;24.93;56.91;100676.81;4955376;28;20284;-78
2021/08/04 10:23:16;;;;;;;3.95;1.60;;;;;;;24.96;54.82;100671.34;4971949;28;20191;-76
2021/08/04 10:25:42;;;;;;;2.95;1.85;;;;;;;23.54;56.44;100685.72;4954204;28;20265;-74
2021/08/04 10:28:10;;;;;;;1.90;1.70;;;;;;;23.96;59.44;100677.34;4954226;29;20199;-75
2021/08/04 10:30:42;;;;;;;1.88;1.60;;;;;;;24.28;57.13;100676.13;4954064;28;20223;-74
2021/08/04 10:33:08;;;;;;;3.25;1.90;;;;;;;24.30;58.23;100673.78;4956464;29;20187;-76
2021/08/04 10:35:38;;;;;;;2.88;1.77;;;;;;;24.97;55.55;100672.13;4955532;28;20215;-77
2021/08/04 10:38:17;;;;;;;2.55;1.60;;;;;;;25.13;54.67;100670.06;4938849;28;20234;-77
2021/08/04 10:40:47;;;;;;;4.35;1.83;;;;;;;24.89;53.99;100670.31;4935431;29;20274;-74
2021/08/04 10:43:36;;;;;;;2.83;2.15;;;;;;;24.40;55.66;100671.28;4935967;29;20227;-77
2021/08/04 10:46:32;;;;;;;1.73;1.63;;;;;;;23.85;55.96;100670.72;4948101;28;20227;-74
2021/08/04 10:49:03;;;;;;;2.20;1.60;;;;;;;24.58;55.50;100672.44;4954573;28;20262;-76
2021/08/04 10:51:29;;;;;;;3.92;1.80;;;;;;;24.66;55.32;100665.88;4946671;28;20274;-75
2021/08/04 10:54:00;;;;;;;2.72;1.52;;;;;;;24.80;57.30;100658.66;4933987;29;20283;-76
2021/08/04 10:56:32;;;;;;;2.72;1.67;;;;;;;24.52;53.75;100658.06;4949585;28;20227;-74
2021/08/04 10:59:08;;;;;;;3.00;1.80;;;;;;;24.18;56.55;100660.00;4934756;29;20200;-74
2021/08/04 11:01:41;;;;;;;2.33;1.60;;;;;;;23.72;59.20;100663.66;4948968;28;20233;-74
2021/08/04 11:04:13;;;;;;;3.67;1.95;;;;;;;24.05;56.82;100666.84;4952846;28;20194;-75
2021/08/04 11:07:12;;;;;;;2.13;1.90;;;;;;;24.02;56.98;100662.00;4933768;28;20318;-75
2021/08/04 11:09:43;;;;;;;4.32;1.95;;;;;;;24.49;56.26;100661.56;4953598;28;20623;-75
2021/08/04 11:12:12;;;;;;;2.30;2.10;;;;;;;24.25;53.28;100654.59;4968389;28;20235;-74
2021/08/04 11:15:11;;;;;;;2.42;2.13;;;;;;;24.57;54.67;100646.63;4922152;28;20179;-75
2021/08/04 11:17:57;;;;;;;4.70;1.80;;;;;;;24.82;55.66;100659.09;4950344;29;20218;-74
2021/08/04 11:20:27;;;;;;;2.30;1.65;;;;;;;24.89;59.82;100657.25;4951429;28;20237;-75
2021/08/04 11:22:53;;;;;;;2.33;1.60;;;;;;;24.66;54.60;100658.34;4937034;29;20194;-74
2021/08/04 11:25:38;;;;;;;2.17;1.75;;;;;;;24.54;56.12;100650.16;4951706;28;20207;-74
2021/08/04 11:28:06;;;;;;;3.10;1.85;;;;;;;24.34;56.22;100650.50;4950442;29;20690;-73
2021/08/04 11:30:34;;;;;;;3.67;1.95;;;;;;;24.70;53.93;100656.44;4935998;29;20305;-74